sensor_id;sensor_type;location;lat;lon;timestamp;P1;durP1;ratioP1;P2;durP2;ratioP2
4023;SDS011;2026;51.002;13.668;2023-06-14T00:02:47;5.97;;;4.17;;
4023;SDS011;2026;51.002;13.668;2023-06-14T00:07:50;4.80;;;4.17;;
4023;SDS011;2026;51.002;13.668;2023-06-14T00:12:56;4.70;;;3.77;;
4023;SDS011;2026;51.002;13.668;2023-06-14T00:18:01;6.17;;;4.00;;
4023;SDS011;2026;51.002;13.668;2023-06-14T00:23:05;4.03;;;3.63;;
4023;SDS011;2026;51.002;13.668;2023-06-14T00:28:09;3.90;;;3.50;;
4023;SDS011;2026;51.002;13.668;2023-06-14T00:33:12;5.10;;;4.00;;
4023;SDS011;2026;51.002;13.668;2023-06-14T00:38:17;7.23;;;4.00;;
4023;SDS011;2026;51.002;13.668;2023-06-14T00:43:21;4.60;;;4.10;;
4023;SDS011;2026;51.002;13.668;2023-06-14T00:48:24;4.23;;;3.73;;
4023;SDS011;2026;51.002;13.668;2023-06-14T00:53:28;5.00;;;3.97;;
4023;SDS011;2026;51.002;13.668;2023-06-14T00:58:32;6.50;;;3.60;;
4023;SDS011;2026;51.002;13.668;2023-06-14T01:03:36;5.47;;;3.90;;
4023;SDS011;2026;51.002;13.668;2023-06-14T01:08:45;5.47;;;3.70;;
4023;SDS011;2026;51.002;13.668;2023-06-14T01:13:55;4.57;;;3.67;;
4023;SDS011;2026;51.002;13.668;2023-06-14T01:18:59;5.30;;;3.77;;
4023;SDS011;2026;51.002;13.668;2023-06-14T01:24:05;6.03;;;3.63;;
4023;SDS011;2026;51.002;13.668;2023-06-14T01:29:08;6.70;;;4.00;;
4023;SDS011;2026;51.002;13.668;2023-06-14T01:34:12;4.50;;;3.70;;
4023;SDS011;2026;51.002;13.668;2023-06-14T01:39:17;4.33;;;3.80;;
4023;SDS011;2026;51.002;13.668;2023-06-14T01:44:23;6.37;;;3.83;;
4023;SDS011;2026;51.002;13.668;2023-06-14T01:49:27;5.20;;;3.47;;
4023;SDS011;2026;51.002;13.668;2023-06-14T01:54:32;5.13;;;3.77;;
4023;SDS011;2026;51.002;13.668;2023-06-14T01:59:36;4.30;;;3.80;;
4023;SDS011;2026;51.002;13.668;2023-06-14T02:04:39;4.30;;;3.80;;
4023;SDS011;2026;51.002;13.668;2023-06-14T02:09:43;4.73;;;3.47;;
4023;SDS011;2026;51.002;13.668;2023-06-14T02:14:46;10.60;;;4.50;;
4023;SDS011;2026;51.002;13.668;2023-06-14T02:19:51;4.73;;;4.23;;
4023;SDS011;2026;51.002;13.668;2023-06-14T02:24:55;4.33;;;3.93;;
4023;SDS011;2026;51.002;13.668;2023-06-14T02:30:03;3.97;;;3.57;;
4023;SDS011;2026;51.002;13.668;2023-06-14T02:35:07;7.73;;;3.87;;
4023;SDS011;2026;51.002;13.668;2023-06-14T02:40:12;8.07;;;4.37;;
4023;SDS011;2026;51.002;13.668;2023-06-14T02:45:16;5.10;;;4.33;;
4023;SDS011;2026;51.002;13.668;2023-06-14T02:50:19;5.60;;;4.27;;
4023;SDS011;2026;51.002;13.668;2023-06-14T02:55:26;4.70;;;4.17;;
4023;SDS011;2026;51.002;13.668;2023-06-14T03:00:29;4.97;;;3.87;;
4023;SDS011;2026;51.002;13.668;2023-06-14T03:05:32;7.50;;;3.90;;
4023;SDS011;2026;51.002;13.668;2023-06-14T03:10:37;7.37;;;4.30;;
4023;SDS011;2026;51.002;13.668;2023-06-14T03:15:41;4.37;;;3.73;;
4023;SDS011;2026;51.002;13.668;2023-06-14T03:20:44;7.33;;;5.03;;
4023;SDS011;2026;51.002;13.668;2023-06-14T03:25:49;5.80;;;4.60;;
4023;SDS011;2026;51.002;13.668;2023-06-14T03:30:53;6.83;;;4.63;;
4023;SDS011;2026;51.002;13.668;2023-06-14T03:35:57;5.43;;;4.57;;
4023;SDS011;2026;51.002;13.668;2023-06-14T03:41:03;7.30;;;4.70;;
4023;SDS011;2026;51.002;13.668;2023-06-14T03:46:06;8.93;;;4.80;;
4023;SDS011;2026;51.002;13.668;2023-06-14T03:51:09;6.63;;;5.13;;
4023;SDS011;2026;51.002;13.668;2023-06-14T03:56:15;5.53;;;4.93;;
4023;SDS011;2026;51.002;13.668;2023-06-14T04:01:18;5.20;;;4.40;;
4023;SDS011;2026;51.002;13.668;2023-06-14T04:06:21;6.53;;;5.10;;
4023;SDS011;2026;51.002;13.668;2023-06-14T04:11:27;6.37;;;5.23;;
4023;SDS011;2026;51.002;13.668;2023-06-14T04:16:32;6.40;;;5.30;;
4023;SDS011;2026;51.002;13.668;2023-06-14T04:21:35;6.30;;;5.30;;
4023;SDS011;2026;51.002;13.668;2023-06-14T04:26:40;7.00;;;5.10;;
4023;SDS011;2026;51.002;13.668;2023-06-14T04:31:48;5.23;;;4.57;;
4023;SDS011;2026;51.002;13.668;2023-06-14T04:36:51;6.77;;;5.57;;
4023;SDS011;2026;51.002;13.668;2023-06-14T04:42:03;7.20;;;6.10;;
4023;SDS011;2026;51.002;13.668;2023-06-14T04:47:09;8.07;;;5.60;;
4023;SDS011;2026;51.002;13.668;2023-06-14T04:52:14;9.40;;;8.57;;
4023;SDS011;2026;51.002;13.668;2023-06-14T04:57:21;7.77;;;5.67;;
4023;SDS011;2026;51.002;13.668;2023-06-14T05:02:26;6.83;;;5.80;;
4023;SDS011;2026;51.002;13.668;2023-06-14T05:07:33;6.27;;;5.07;;
4023;SDS011;2026;51.002;13.668;2023-06-14T05:12:37;7.37;;;5.97;;
4023;SDS011;2026;51.002;13.668;2023-06-14T05:17:43;6.87;;;5.50;;
4023;SDS011;2026;51.002;13.668;2023-06-14T05:22:46;6.47;;;5.80;;
4023;SDS011;2026;51.002;13.668;2023-06-14T05:27:52;7.00;;;5.50;;
4023;SDS011;2026;51.002;13.668;2023-06-14T05:32:55;6.67;;;5.13;;
4023;SDS011;2026;51.002;13.668;2023-06-14T05:37:59;6.47;;;5.80;;
4023;SDS011;2026;51.002;13.668;2023-06-14T05:43:03;6.10;;;5.10;;
4023;SDS011;2026;51.002;13.668;2023-06-14T05:48:06;8.70;;;5.67;;
4023;SDS011;2026;51.002;13.668;2023-06-14T05:53:09;7.30;;;5.93;;
4023;SDS011;2026;51.002;13.668;2023-06-14T05:58:14;9.13;;;6.10;;
4023;SDS011;2026;51.002;13.668;2023-06-14T06:03:17;6.60;;;6.00;;
4023;SDS011;2026;51.002;13.668;2023-06-14T06:08:20;7.80;;;6.03;;
4023;SDS011;2026;51.002;13.668;2023-06-14T06:13:24;7.83;;;6.53;;
4023;SDS011;2026;51.002;13.668;2023-06-14T06:18:27;7.63;;;6.33;;
4023;SDS011;2026;51.002;13.668;2023-06-14T06:23:30;7.30;;;6.27;;
4023;SDS011;2026;51.002;13.668;2023-06-14T06:28:34;8.60;;;6.67;;
4023;SDS011;2026;51.002;13.668;2023-06-14T06:33:37;7.70;;;6.80;;
4023;SDS011;2026;51.002;13.668;2023-06-14T06:38:41;7.60;;;6.77;;
4023;SDS011;2026;51.002;13.668;2023-06-14T06:43:45;11.93;;;6.40;;
4023;SDS011;2026;51.002;13.668;2023-06-14T06:48:50;10.63;;;7.00;;
4023;SDS011;2026;51.002;13.668;2023-06-14T06:53:53;7.40;;;6.40;;
4023;SDS011;2026;51.002;13.668;2023-06-14T06:58:58;11.73;;;7.00;;
4023;SDS011;2026;51.002;13.668;2023-06-14T07:04:01;8.40;;;6.93;;
4023;SDS011;2026;51.002;13.668;2023-06-14T07:09:04;9.10;;;7.20;;
4023;SDS011;2026;51.002;13.668;2023-06-14T07:14:11;8.37;;;7.53;;
4023;SDS011;2026;51.002;13.668;2023-06-14T07:19:14;7.00;;;6.30;;
4023;SDS011;2026;51.002;13.668;2023-06-14T07:24:17;7.20;;;6.50;;
4023;SDS011;2026;51.002;13.668;2023-06-14T07:29:24;7.07;;;6.30;;
4023;SDS011;2026;51.002;13.668;2023-06-14T07:34:27;6.90;;;5.90;;
4023;SDS011;2026;51.002;13.668;2023-06-14T07:39:30;8.90;;;6.57;;
4023;SDS011;2026;51.002;13.668;2023-06-14T07:44:35;7.17;;;6.47;;
4023;SDS011;2026;51.002;13.668;2023-06-14T07:49:38;9.40;;;5.83;;
4023;SDS011;2026;51.002;13.668;2023-06-14T07:54:41;7.37;;;6.57;;
4023;SDS011;2026;51.002;13.668;2023-06-14T07:59:45;8.27;;;6.73;;
4023;SDS011;2026;51.002;13.668;2023-06-14T08:04:48;7.40;;;6.40;;
4023;SDS011;2026;51.002;13.668;2023-06-14T08:09:51;6.40;;;5.77;;
4023;SDS011;2026;51.002;13.668;2023-06-14T08:14:55;6.97;;;6.10;;
4023;SDS011;2026;51.002;13.668;2023-06-14T08:20:13;6.77;;;6.03;;
4023;SDS011;2026;51.002;13.668;2023-06-14T08:25:17;5.00;;;4.00;;
4023;SDS011;2026;51.002;13.668;2023-06-14T08:30:21;4.93;;;4.53;;
4023;SDS011;2026;51.002;13.668;2023-06-14T08:35:24;5.37;;;4.87;;
4023;SDS011;2026;51.002;13.668;2023-06-14T08:40:27;6.03;;;4.07;;
4023;SDS011;2026;51.002;13.668;2023-06-14T08:45:34;7.90;;;4.50;;
4023;SDS011;2026;51.002;13.668;2023-06-14T08:50:37;5.47;;;3.83;;
4023;SDS011;2026;51.002;13.668;2023-06-14T08:55:43;3.80;;;3.50;;
4023;SDS011;2026;51.002;13.668;2023-06-14T09:00:48;3.90;;;3.60;;
4023;SDS011;2026;51.002;13.668;2023-06-14T09:05:53;4.30;;;3.90;;
4023;SDS011;2026;51.002;13.668;2023-06-14T09:10:57;4.53;;;3.30;;
4023;SDS011;2026;51.002;13.668;2023-06-14T09:16:02;5.57;;;4.07;;
4023;SDS011;2026;51.002;13.668;2023-06-14T09:21:06;7.50;;;4.40;;
4023;SDS011;2026;51.002;13.668;2023-06-14T09:26:10;4.60;;;4.30;;
4023;SDS011;2026;51.002;13.668;2023-06-14T09:31:16;6.30;;;4.10;;
4023;SDS011;2026;51.002;13.668;2023-06-14T09:36:21;5.57;;;4.33;;
4023;SDS011;2026;51.002;13.668;2023-06-14T09:41:31;5.27;;;4.77;;
4023;SDS011;2026;51.002;13.668;2023-06-14T09:46:37;5.03;;;3.90;;
4023;SDS011;2026;51.002;13.668;2023-06-14T09:51:42;5.43;;;4.57;;
4023;SDS011;2026;51.002;13.668;2023-06-14T09:56:46;5.77;;;4.70;;
4023;SDS011;2026;51.002;13.668;2023-06-14T10:01:52;5.67;;;4.63;;
4023;SDS011;2026;51.002;13.668;2023-06-14T10:07:00;6.73;;;4.67;;
4023;SDS011;2026;51.002;13.668;2023-06-14T10:12:04;5.27;;;4.50;;
4023;SDS011;2026;51.002;13.668;2023-06-14T10:17:10;6.00;;;4.83;;
4023;SDS011;2026;51.002;13.668;2023-06-14T10:22:21;6.63;;;4.77;;
4023;SDS011;2026;51.002;13.668;2023-06-14T10:27:28;4.67;;;3.87;;
4023;SDS011;2026;51.002;13.668;2023-06-14T10:32:33;6.60;;;4.20;;
4023;SDS011;2026;51.002;13.668;2023-06-14T10:37:37;5.33;;;4.83;;
4023;SDS011;2026;51.002;13.668;2023-06-14T10:42:40;8.07;;;4.13;;
4023;SDS011;2026;51.002;13.668;2023-06-14T10:47:56;3.70;;;3.40;;
4023;SDS011;2026;51.002;13.668;2023-06-14T10:53:00;4.43;;;4.03;;
4023;SDS011;2026;51.002;13.668;2023-06-14T10:58:03;4.57;;;3.40;;
4023;SDS011;2026;51.002;13.668;2023-06-14T11:08:51;4.80;;;3.97;;
4023;SDS011;2026;51.002;13.668;2023-06-14T11:14:21;4.37;;;4.00;;
4023;SDS011;2026;51.002;13.668;2023-06-14T11:19:24;4.43;;;4.03;;
4023;SDS011;2026;51.002;13.668;2023-06-14T11:24:32;4.30;;;3.40;;
4023;SDS011;2026;51.002;13.668;2023-06-14T11:29:36;5.27;;;4.17;;
4023;SDS011;2026;51.002;13.668;2023-06-14T11:34:39;5.07;;;4.57;;
4023;SDS011;2026;51.002;13.668;2023-06-14T11:39:44;4.87;;;4.23;;
4023;SDS011;2026;51.002;13.668;2023-06-14T11:44:47;5.40;;;4.43;;
4023;SDS011;2026;51.002;13.668;2023-06-14T11:49:52;5.20;;;4.70;;
4023;SDS011;2026;51.002;13.668;2023-06-14T11:54:56;4.73;;;4.20;;
4023;SDS011;2026;51.002;13.668;2023-06-14T12:00:00;6.57;;;5.80;;
4023;SDS011;2026;51.002;13.668;2023-06-14T12:05:28;8.30;;;6.70;;
4023;SDS011;2026;51.002;13.668;2023-06-14T12:10:33;5.60;;;5.10;;
4023;SDS011;2026;51.002;13.668;2023-06-14T12:15:42;5.93;;;5.37;;
4023;SDS011;2026;51.002;13.668;2023-06-14T12:20:47;9.63;;;5.00;;
4023;SDS011;2026;51.002;13.668;2023-06-14T12:25:53;5.60;;;4.87;;
4023;SDS011;2026;51.002;13.668;2023-06-14T12:30:57;5.93;;;4.37;;
4023;SDS011;2026;51.002;13.668;2023-06-14T12:36:02;6.00;;;4.87;;
4023;SDS011;2026;51.002;13.668;2023-06-14T12:41:07;5.20;;;4.70;;
4023;SDS011;2026;51.002;13.668;2023-06-14T12:46:11;5.80;;;5.20;;
4023;SDS011;2026;51.002;13.668;2023-06-14T12:51:14;6.83;;;4.80;;
4023;SDS011;2026;51.002;13.668;2023-06-14T12:56:18;6.57;;;4.87;;
4023;SDS011;2026;51.002;13.668;2023-06-14T13:01:25;5.50;;;4.97;;
4023;SDS011;2026;51.002;13.668;2023-06-14T13:06:28;5.60;;;4.60;;
4023;SDS011;2026;51.002;13.668;2023-06-14T13:11:34;5.40;;;4.40;;
4023;SDS011;2026;51.002;13.668;2023-06-14T13:16:37;4.80;;;4.40;;
4023;SDS011;2026;51.002;13.668;2023-06-14T13:21:40;5.70;;;5.03;;
4023;SDS011;2026;51.002;13.668;2023-06-14T13:26:44;6.20;;;5.00;;
4023;SDS011;2026;51.002;13.668;2023-06-14T13:31:47;6.93;;;5.70;;
4023;SDS011;2026;51.002;13.668;2023-06-14T13:36:50;5.80;;;5.00;;
4023;SDS011;2026;51.002;13.668;2023-06-14T13:41:55;5.07;;;4.57;;
4023;SDS011;2026;51.002;13.668;2023-06-14T13:46:58;5.30;;;4.80;;
4023;SDS011;2026;51.002;13.668;2023-06-14T13:52:07;5.00;;;4.50;;
4023;SDS011;2026;51.002;13.668;2023-06-14T13:57:12;6.23;;;5.03;;
4023;SDS011;2026;51.002;13.668;2023-06-14T14:02:15;6.53;;;4.67;;
4023;SDS011;2026;51.002;13.668;2023-06-14T14:07:18;8.60;;;4.57;;
4023;SDS011;2026;51.002;13.668;2023-06-14T14:12:23;8.40;;;4.30;;
4023;SDS011;2026;51.002;13.668;2023-06-14T14:17:26;5.27;;;4.77;;
4023;SDS011;2026;51.002;13.668;2023-06-14T14:22:31;7.28;;;5.47;;
4023;SDS011;2026;51.002;13.668;2023-06-14T14:27:35;4.97;;;4.47;;
4023;SDS011;2026;51.002;13.668;2023-06-14T14:32:39;6.07;;;5.13;;
4023;SDS011;2026;51.002;13.668;2023-06-14T14:37:42;9.00;;;4.27;;
4023;SDS011;2026;51.002;13.668;2023-06-14T14:42:46;7.43;;;4.57;;
4023;SDS011;2026;51.002;13.668;2023-06-14T14:47:49;5.13;;;3.90;;
4023;SDS011;2026;51.002;13.668;2023-06-14T14:52:56;5.57;;;3.93;;
4023;SDS011;2026;51.002;13.668;2023-06-14T14:58:00;4.20;;;3.80;;
4023;SDS011;2026;51.002;13.668;2023-06-14T15:03:03;4.60;;;3.67;;
4023;SDS011;2026;51.002;13.668;2023-06-14T15:08:07;3.60;;;3.30;;
4023;SDS011;2026;51.002;13.668;2023-06-14T15:13:15;3.73;;;3.17;;
4023;SDS011;2026;51.002;13.668;2023-06-14T15:18:18;3.73;;;3.33;;
4023;SDS011;2026;51.002;13.668;2023-06-14T15:23:22;6.10;;;3.33;;
4023;SDS011;2026;51.002;13.668;2023-06-14T15:28:26;3.77;;;3.10;;
4023;SDS011;2026;51.002;13.668;2023-06-14T15:33:30;3.70;;;3.40;;
4023;SDS011;2026;51.002;13.668;2023-06-14T15:38:33;3.72;;;3.42;;
4023;SDS011;2026;51.002;13.668;2023-06-14T15:43:37;7.53;;;3.88;;
4023;SDS011;2026;51.002;13.668;2023-06-14T15:48:40;4.80;;;3.80;;
4023;SDS011;2026;51.002;13.668;2023-06-14T15:53:43;4.73;;;3.57;;
4023;SDS011;2026;51.002;13.668;2023-06-14T15:58:48;4.87;;;4.37;;
4023;SDS011;2026;51.002;13.668;2023-06-14T16:03:53;4.90;;;3.83;;
4023;SDS011;2026;51.002;13.668;2023-06-14T16:08:57;5.10;;;4.60;;
4023;SDS011;2026;51.002;13.668;2023-06-14T16:14:02;5.17;;;4.67;;
4023;SDS011;2026;51.002;13.668;2023-06-14T16:19:05;5.77;;;4.60;;
4023;SDS011;2026;51.002;13.668;2023-06-14T16:24:09;5.30;;;4.80;;
4023;SDS011;2026;51.002;13.668;2023-06-14T16:29:13;6.10;;;4.60;;
4023;SDS011;2026;51.002;13.668;2023-06-14T16:34:17;4.47;;;4.07;;
4023;SDS011;2026;51.002;13.668;2023-06-14T16:39:20;7.13;;;4.80;;
4023;SDS011;2026;51.002;13.668;2023-06-14T16:44:24;6.53;;;5.60;;
4023;SDS011;2026;51.002;13.668;2023-06-14T16:49:27;6.47;;;5.80;;
4023;SDS011;2026;51.002;13.668;2023-06-14T16:54:30;7.47;;;6.13;;
4023;SDS011;2026;51.002;13.668;2023-06-14T16:59:35;6.73;;;5.90;;
4023;SDS011;2026;51.002;13.668;2023-06-14T17:04:37;7.93;;;7.13;;
4023;SDS011;2026;51.002;13.668;2023-06-14T17:09:40;7.30;;;6.60;;
4023;SDS011;2026;51.002;13.668;2023-06-14T17:14:45;9.63;;;6.77;;
4023;SDS011;2026;51.002;13.668;2023-06-14T17:19:52;7.20;;;6.43;;
4023;SDS011;2026;51.002;13.668;2023-06-14T17:24:55;7.00;;;6.30;;
4023;SDS011;2026;51.002;13.668;2023-06-14T17:29:59;7.07;;;6.37;;
4023;SDS011;2026;51.002;13.668;2023-06-14T17:35:02;7.10;;;6.40;;
4023;SDS011;2026;51.002;13.668;2023-06-14T17:40:06;7.10;;;6.40;;
4023;SDS011;2026;51.002;13.668;2023-06-14T17:45:11;10.73;;;6.20;;
4023;SDS011;2026;51.002;13.668;2023-06-14T17:50:14;6.90;;;6.20;;
4023;SDS011;2026;51.002;13.668;2023-06-14T17:55:18;8.00;;;6.13;;
4023;SDS011;2026;51.002;13.668;2023-06-14T18:00:22;7.07;;;5.97;;
4023;SDS011;2026;51.002;13.668;2023-06-14T18:05:25;6.70;;;6.00;;
4023;SDS011;2026;51.002;13.668;2023-06-14T18:10:29;10.60;;;6.17;;
4023;SDS011;2026;51.002;13.668;2023-06-14T18:15:33;9.03;;;6.00;;
4023;SDS011;2026;51.002;13.668;2023-06-14T18:20:36;9.37;;;6.13;;
4023;SDS011;2026;51.002;13.668;2023-06-14T18:25:39;6.90;;;6.30;;
4023;SDS011;2026;51.002;13.668;2023-06-14T18:30:43;6.90;;;6.20;;
4023;SDS011;2026;51.002;13.668;2023-06-14T18:35:46;7.73;;;6.33;;
4023;SDS011;2026;51.002;13.668;2023-06-14T18:40:49;7.10;;;5.97;;
4023;SDS011;2026;51.002;13.668;2023-06-14T18:45:54;6.47;;;5.73;;
4023;SDS011;2026;51.002;13.668;2023-06-14T18:50:57;6.50;;;5.90;;
4023;SDS011;2026;51.002;13.668;2023-06-14T18:56:00;6.80;;;5.43;;
4023;SDS011;2026;51.002;13.668;2023-06-14T19:01:05;6.20;;;5.60;;
4023;SDS011;2026;51.002;13.668;2023-06-14T19:06:08;7.10;;;6.17;;
4023;SDS011;2026;51.002;13.668;2023-06-14T19:11:11;6.70;;;5.80;;
4023;SDS011;2026;51.002;13.668;2023-06-14T19:16:15;5.60;;;5.07;;
4023;SDS011;2026;51.002;13.668;2023-06-14T19:21:18;8.47;;;6.37;;
4023;SDS011;2026;51.002;13.668;2023-06-14T19:26:21;6.37;;;4.97;;
4023;SDS011;2026;51.002;13.668;2023-06-14T19:31:27;6.40;;;5.80;;
4023;SDS011;2026;51.002;13.668;2023-06-14T19:36:31;6.20;;;5.63;;
4023;SDS011;2026;51.002;13.668;2023-06-14T19:41:33;6.13;;;5.50;;
4023;SDS011;2026;51.002;13.668;2023-06-14T19:46:38;5.57;;;5.07;;
4023;SDS011;2026;51.002;13.668;2023-06-14T19:51:41;6.97;;;5.70;;
4023;SDS011;2026;51.002;13.668;2023-06-14T19:56:44;9.10;;;5.53;;
4023;SDS011;2026;51.002;13.668;2023-06-14T20:01:48;8.17;;;5.90;;
4023;SDS011;2026;51.002;13.668;2023-06-14T20:06:51;6.60;;;5.67;;
4023;SDS011;2026;51.002;13.668;2023-06-14T20:11:59;7.97;;;6.27;;
4023;SDS011;2026;51.002;13.668;2023-06-14T20:17:04;6.87;;;6.00;;
4023;SDS011;2026;51.002;13.668;2023-06-14T20:22:07;7.90;;;5.80;;
4023;SDS011;2026;51.002;13.668;2023-06-14T20:27:10;6.53;;;5.87;;
4023;SDS011;2026;51.002;13.668;2023-06-14T20:32:15;7.03;;;6.20;;
4023;SDS011;2026;51.002;13.668;2023-06-14T20:37:18;12.23;;;6.13;;
4023;SDS011;2026;51.002;13.668;2023-06-14T20:42:21;7.17;;;6.47;;
4023;SDS011;2026;51.002;13.668;2023-06-14T20:47:32;7.90;;;6.60;;
4023;SDS011;2026;51.002;13.668;2023-06-14T20:52:35;9.87;;;6.67;;
4023;SDS011;2026;51.002;13.668;2023-06-14T20:57:38;4.10;;;3.23;;
4023;SDS011;2026;51.002;13.668;2023-06-14T21:02:42;6.90;;;5.20;;
4023;SDS011;2026;51.002;13.668;2023-06-14T21:07:46;6.43;;;4.67;;
4023;SDS011;2026;51.002;13.668;2023-06-14T21:12:49;7.70;;;5.33;;
4023;SDS011;2026;51.002;13.668;2023-06-14T21:17:57;45.90;;;10.57;;
4023;SDS011;2026;51.002;13.668;2023-06-14T21:23:00;7.33;;;6.43;;
4023;SDS011;2026;51.002;13.668;2023-06-14T21:28:03;8.97;;;6.80;;
4023;SDS011;2026;51.002;13.668;2023-06-14T21:33:08;9.00;;;7.20;;
4023;SDS011;2026;51.002;13.668;2023-06-14T21:38:11;8.53;;;7.07;;
4023;SDS011;2026;51.002;13.668;2023-06-14T21:43:14;8.83;;;7.43;;
4023;SDS011;2026;51.002;13.668;2023-06-14T21:48:19;9.70;;;6.83;;
4023;SDS011;2026;51.002;13.668;2023-06-14T21:53:22;8.90;;;7.10;;
4023;SDS011;2026;51.002;13.668;2023-06-14T21:58:25;12.13;;;7.80;;
4023;SDS011;2026;51.002;13.668;2023-06-14T22:03:29;10.50;;;7.60;;
4023;SDS011;2026;51.002;13.668;2023-06-14T22:08:34;8.80;;;7.90;;
4023;SDS011;2026;51.002;13.668;2023-06-14T22:13:38;10.73;;;7.90;;
4023;SDS011;2026;51.002;13.668;2023-06-14T22:18:43;11.73;;;7.87;;
4023;SDS011;2026;51.002;13.668;2023-06-14T22:23:47;11.90;;;7.70;;
4023;SDS011;2026;51.002;13.668;2023-06-14T22:28:50;8.80;;;7.00;;
4023;SDS011;2026;51.002;13.668;2023-06-14T22:33:54;7.50;;;6.70;;
4023;SDS011;2026;51.002;13.668;2023-06-14T22:38:58;10.80;;;7.63;;
4023;SDS011;2026;51.002;13.668;2023-06-14T22:44:04;10.20;;;7.50;;
4023;SDS011;2026;51.002;13.668;2023-06-14T22:49:09;12.60;;;7.63;;
4023;SDS011;2026;51.002;13.668;2023-06-14T22:54:13;9.90;;;6.60;;
4023;SDS011;2026;51.002;13.668;2023-06-14T22:59:16;8.53;;;6.57;;
4023;SDS011;2026;51.002;13.668;2023-06-14T23:04:21;8.30;;;7.30;;
4023;SDS011;2026;51.002;13.668;2023-06-14T23:09:24;9.20;;;6.40;;
4023;SDS011;2026;51.002;13.668;2023-06-14T23:14:27;8.53;;;6.87;;
4023;SDS011;2026;51.002;13.668;2023-06-14T23:19:32;9.13;;;7.30;;
4023;SDS011;2026;51.002;13.668;2023-06-14T23:24:37;8.97;;;6.53;;
4023;SDS011;2026;51.002;13.668;2023-06-14T23:29:41;9.17;;;6.63;;
4023;SDS011;2026;51.002;13.668;2023-06-14T23:34:47;11.70;;;7.40;;
4023;SDS011;2026;51.002;13.668;2023-06-14T23:39:50;9.77;;;6.87;;
4023;SDS011;2026;51.002;13.668;2023-06-14T23:44:55;9.73;;;6.80;;
4023;SDS011;2026;51.002;13.668;2023-06-14T23:50:05;10.10;;;6.70;;
4023;SDS011;2026;51.002;13.668;2023-06-14T23:55:09;10.60;;;7.80;;
